Dukedom, TN (38226)

10:17 CST le 22 décembre 2014 (GMT -0600)
KTNDUKED2 | Change Station
CLOSE
Current Station
Stations météorologiques personnelles
Location: Dukedom, TN
Altitude: 486 ft
Stations météo à proximité

Alt. 486 ft 36.49 °N, 88.72 °W | Updated 2 minutes ago

Couvert
Couvert
49.8 ° F
Paraît 50 ° F
N
1.0
Vent Variable Vent de SSE
Gusts 9.0 mph

Aujourd'hui
Haut(e) -- | Bas -- ° F
--% Risque de précip.
Hier
Haut(e) -- | Bas -- ° F
Precip. -- pouce
7:03 AM 4:43 PM
Nouvelle lune, 1% visible
Pression 29.80 pouce
Visibilité 10.0 Miles terrestres
Nuages Couvert 1100 ft
Refroidissement éolien 50 ° F
Point de rosée 48 ° F
Humidité 95%
Précipitations 0.00 pouce
Profondeur de la couche neigeuse Non disponible.
UV 15.2 sur 12
Pollen 3.90 sur 12
Qualité de l'air Non disponible.
Flu Activity Non disponible.
METAR KUCY 221555Z AUTO 16008KT 10SM OVC011 09/08 A2980 RMK

More Conditions Fewer Conditions

Pression 29.80 pouce
Visibilité 10.0 Miles terrestres
Nuages Couvert 1100 ft
Refroidissement éolien 50 ° F
Point de rosée 48 ° F
Humidité 95%
Précipitations 0.00 pouce
Profondeur de la couche neigeuse Non disponible.
UV 15.2 sur 12
Pollen 3.90 sur 12
Qualité de l'air Non disponible.
Flu Activity Non disponible.
METAR KUCY 221555Z AUTO 16008KT 10SM OVC011 09/08 A2980 RMK

More Conditions Fewer Conditions

10-Day Weather Forecast

Almanac

Astronomie

Dec. 22, 2014 Lever Coucher
Temps réel
Crépuscule civil
Crépuscule nautique
Crépuscule astronomique
Lune
Durée de lumière visible
Longueur du jour
Tomorrow will be .
, % of the Moon is Illuminated

Extrêmes aujourd'hui

State Highs State Lows

Community

WunderPhotos

Upload Photos

1,779,630 Photos téléchargées !

WunderBlogs® & News

Nearby

Qualité de l'air

  Qualité de l'air Indice de la qualité de l'air Polluant
Not available.

Épaisseur de neige

Station Depth Altitude

Activité sismique

Ville Distance Mag. Time & Date
Minimum magnitude displayed is 2.5.

Températures des eaux côtières

Lieu Température

Stations météo à proximité